Time;durP1;ratioP1;P1;durP2;ratioP2;P2;SDS_P1;SDS_P2;PMS_P1;PMS_P2;Temp;Humidity;BMP_temperature;BMP_pressure;BME280_temperature;BME280_humidity;BME280_pressure;Samples;Min_cycle;Max_cycle;Signal;HPM_P1;HPM_P2
2024/02/01 00:01:30;;;;;;;21.80;6.93;;;7.80;99.90;;;7.66;71.98;101390.88;5002290;28;20137;-80
2024/02/01 00:03:57;;;;;;;13.70;6.70;;;7.80;99.90;;;7.69;72.23;101390.50;5019388;28;20523;-80
2024/02/01 00:06:25;;;;;;;12.57;6.60;;;7.80;99.90;;;7.74;71.93;101384.69;5019737;28;20045;-80
2024/02/01 00:08:54;;;;;;;15.25;6.50;;;7.90;99.90;;;7.77;72.14;101375.56;5018936;28;20531;-80
2024/02/01 00:11:21;;;;;;;12.23;6.90;;;7.90;99.90;;;7.75;72.48;101379.19;5018148;28;20528;-80
2024/02/01 00:13:48;;;;;;;14.48;6.72;;;7.90;99.90;;;7.75;72.65;101371.22;5051934;28;20080;-80
2024/02/01 00:16:21;;;;;;;16.23;6.32;;;7.90;99.90;;;7.78;73.07;101379.88;5019106;28;20053;-80
2024/02/01 00:18:49;;;;;;;14.73;6.50;;;7.90;99.90;;;7.85;72.73;101372.88;5036933;28;20084;-80
2024/02/01 00:21:17;;;;;;;13.43;6.68;;;8.00;99.90;;;7.86;72.94;101374.56;5037821;28;20030;-80
2024/02/01 00:23:44;;;;;;;12.02;6.90;;;8.00;99.90;;;7.86;73.05;101369.25;5018979;28;20045;-80
2024/02/01 00:26:13;;;;;;;13.00;6.78;;;8.00;99.90;;;7.85;73.53;101363.06;5036736;28;20053;-80
2024/02/01 00:28:40;;;;;;;16.20;7.65;;;8.00;99.90;;;7.86;73.93;101361.28;5018606;28;20116;-80
2024/02/01 00:31:08;;;;;;;12.73;6.93;;;8.00;99.90;;;7.86;74.53;101358.63;5036183;28;20041;-80
2024/02/01 00:33:35;;;;;;;14.25;7.07;;;8.00;99.90;;;7.83;75.07;101359.78;5001988;28;20080;-80
2024/02/01 00:36:03;;;;;;;18.45;6.90;;;8.00;99.90;;;7.87;75.37;101362.91;5019001;28;20041;-80
2024/02/01 00:38:30;;;;;;;11.05;7.10;;;8.00;99.90;;;7.93;74.90;101356.91;5036711;28;20564;-80
2024/02/01 00:40:58;;;;;;;16.65;7.97;;;8.10;99.90;;;7.85;76.06;101359.59;5018686;28;20056;-80
2024/02/01 00:43:27;;;;;;;17.75;8.00;;;8.00;99.90;;;7.84;76.68;101363.25;5019212;28;20077;-80
2024/02/01 00:45:54;;;;;;;16.17;8.32;;;8.00;99.90;;;7.84;77.04;101360.59;5018555;28;20042;-80
2024/02/01 00:48:21;;;;;;;23.98;9.10;;;8.00;99.90;;;7.83;78.04;101359.78;5036261;28;20080;-80
2024/02/01 00:50:49;;;;;;;22.33;9.18;;;8.00;99.90;;;7.83;79.34;101365.09;4966367;28;20121;-80
2024/02/01 00:53:16;;;;;;;17.58;8.35;;;8.00;99.90;;;7.79;80.40;101358.44;5031603;28;20056;-80
2024/02/01 00:55:44;;;;;;;15.02;8.60;;;7.90;99.90;;;7.84;80.33;101357.94;5022768;28;20042;-80
2024/02/01 00:58:11;;;;;;;19.65;9.82;;;8.00;99.90;;;7.85;80.95;101354.28;5040027;28;20053;-80
2024/02/01 01:00:40;;;;;;;20.05;9.70;;;8.00;99.90;;;7.85;81.59;101351.63;5022708;28;20051;-80
2024/02/01 01:03:07;;;;;;;19.08;10.93;;;8.00;99.90;;;7.83;82.19;101350.97;5040958;28;20080;-80
2024/02/01 01:05:35;;;;;;;17.63;10.23;;;7.90;99.90;;;7.82;82.83;101352.81;5022981;28;20493;-80
2024/02/01 01:08:02;;;;;;;17.33;9.20;;;7.90;99.90;;;7.81;82.96;101351.16;5023615;28;20053;-80
2024/02/01 01:10:29;;;;;;;22.25;10.27;;;7.90;99.90;;;7.83;83.10;101338.53;5022483;28;20054;-80
2024/02/01 01:12:57;;;;;;;26.70;10.57;;;7.90;99.90;;;7.80;83.39;101351.31;5022525;28;20045;-80
2024/02/01 01:15:25;;;;;;;19.02;9.68;;;8.00;99.90;;;7.82;83.54;101339.53;5040501;28;20092;-80
2024/02/01 01:17:53;;;;;;;18.02;10.00;;;7.90;99.90;;;7.81;84.03;101350.31;5022444;28;20056;-80
2024/02/01 01:20:23;;;;;;;17.25;9.73;;;7.90;99.90;;;7.81;84.06;101345.00;5039696;28;20042;-80
2024/02/01 01:22:50;;;;;;;18.25;10.75;;;7.90;99.90;;;7.80;84.79;101349.47;5021552;28;20398;-80
2024/02/01 01:25:18;;;;;;;21.45;10.27;;;7.90;99.90;;;7.83;84.91;101351.81;5022088;28;20519;-80
2024/02/01 01:27:45;;;;;;;16.42;10.50;;;7.90;99.90;;;7.83;84.96;101353.63;5040342;28;20108;-80
2024/02/01 01:30:13;;;;;;;21.85;10.68;;;7.90;99.90;;;7.80;85.23;101352.13;5022441;28;20037;-80
2024/02/01 01:32:41;;;;;;;20.25;10.90;;;7.90;99.90;;;7.80;85.37;101346.81;5039732;28;20041;-80
2024/02/01 01:35:10;;;;;;;22.52;10.68;;;7.90;99.90;;;7.80;85.83;101357.44;5038879;28;20041;-80
2024/02/01 01:37:38;;;;;;;21.27;10.40;;;7.90;99.90;;;7.82;86.11;101352.81;5039566;28;20501;-80
2024/02/01 01:40:08;;;;;;;22.52;10.13;;;7.90;99.90;;;7.87;85.66;101352.31;5039683;28;20057;-80
2024/02/01 01:42:35;;;;;;;22.03;11.50;;;8.00;99.90;;;7.88;85.57;101352.13;5022417;28;20072;-80
2024/02/01 01:45:03;;;;;;;20.17;11.13;;;8.00;99.90;;;7.94;85.46;101364.69;5022053;28;20056;-80
2024/02/01 01:47:32;;;;;;;18.35;10.07;;;8.00;99.90;;;7.93;85.75;101370.19;5039884;28;20056;-80
2024/02/01 01:50:01;;;;;;;22.25;10.65;;;8.00;99.90;;;7.86;86.35;101358.63;5021035;28;20036;-80
2024/02/01 01:52:30;;;;;;;18.17;10.27;;;8.00;99.90;;;7.86;86.33;101346.16;5038827;28;20049;-80
2024/02/01 01:54:58;;;;;;;20.40;10.70;;;8.00;99.90;;;7.90;86.25;101354.59;5021619;28;20029;-80
2024/02/01 01:57:27;;;;;;;17.27;9.90;;;8.00;99.90;;;7.90;86.62;101347.44;5004918;28;20045;-80
2024/02/01 01:59:56;;;;;;;17.60;10.30;;;8.00;99.90;;;7.89;86.54;101343.16;5021424;28;20063;-80
2024/02/01 02:02:29;;;;;;;21.30;10.88;;;8.00;99.90;;;7.87;87.16;101342.50;4987431;28;20107;-80
2024/02/01 02:04:57;;;;;;;20.02;11.40;;;8.00;99.90;;;7.84;87.65;101326.06;5022508;28;20049;-80
2024/02/01 02:07:25;;;;;;;18.08;11.35;;;8.00;99.90;;;7.82;87.82;101341.38;5020591;28;20421;-80
2024/02/01 02:09:54;;;;;;;24.05;11.52;;;7.90;99.90;;;7.86;87.95;101337.38;5003798;28;20044;-80
2024/02/01 02:12:24;;;;;;;20.42;11.05;;;8.00;99.90;;;7.90;88.01;101346.63;5038320;28;20045;-80
2024/02/01 02:15:01;;;;;;;17.85;10.88;;;8.00;99.90;;;7.88;88.26;101353.94;5020319;28;20436;-80
2024/02/01 02:17:30;;;;;;;23.85;11.95;;;8.00;99.90;;;7.89;88.19;101329.03;4990160;28;20129;-80
2024/02/01 02:20:17;;;;;;;20.13;10.45;;;8.00;99.90;;;7.92;88.21;101337.50;5038228;28;20088;-80
2024/02/01 02:22:47;;;;;;;18.23;10.38;;;8.00;99.90;;;7.89;88.84;101340.50;5023398;28;20108;-80
2024/02/01 02:25:15;;;;;;;19.95;11.20;;;8.00;99.90;;;7.88;88.88;101346.81;5003754;28;20052;-80
2024/02/01 02:27:43;;;;;;;18.23;10.35;;;8.00;99.90;;;7.89;89.03;101347.63;5038201;28;20041;-80
2024/02/01 02:30:12;;;;;;;18.27;10.95;;;8.00;99.90;;;7.95;88.62;101342.47;5019678;28;20136;-80
2024/02/01 02:32:41;;;;;;;17.45;10.52;;;8.00;99.90;;;7.97;88.78;101347.63;5002668;28;20037;-80
2024/02/01 02:35:12;;;;;;;14.82;9.98;;;8.10;99.90;;;7.99;88.86;101350.91;5037518;28;20584;-80
2024/02/01 02:37:46;;;;;;;;;;;8.10;99.90;;;7.98;88.81;101346.59;5020532;28;20056;-80
2024/02/01 02:40:19;;;;;;;16.67;10.00;;;8.10;99.90;;;7.99;88.85;101342.94;5036570;28;19921;-80
2024/02/01 02:42:50;;;;;;;19.60;9.45;;;8.10;99.90;;;7.98;89.06;101344.78;5019343;28;20543;-80
2024/02/01 02:45:18;;;;;;;;;;;8.10;99.90;;;7.96;89.26;101336.16;5037150;28;20076;-80
2024/02/01 02:47:46;;;;;;;15.10;9.52;;;8.10;99.90;;;7.99;89.44;101343.75;5003254;28;19967;-80
2024/02/01 02:50:16;;;;;;;20.23;11.23;;;8.10;99.90;;;8.01;89.18;101338.31;5036452;28;20045;-80
2024/02/01 02:52:47;;;;;;;16.27;10.02;;;8.10;99.90;;;8.04;89.14;101329.97;4985394;28;20107;-80
2024/02/01 02:55:14;;;;;;;15.60;9.23;;;8.10;99.90;;;8.04;89.34;101329.97;5003393;28;20056;-80
2024/02/01 02:57:42;;;;;;;17.95;9.38;;;8.10;99.90;;;8.06;89.07;101343.91;5036991;28;20088;-80
2024/02/01 03:00:18;;;;;;;13.05;8.48;;;8.20;99.90;;;8.08;89.31;101344.56;5036561;28;20419;-80
2024/02/01 03:02:47;;;;;;;17.63;10.38;;;8.20;99.90;;;8.09;89.13;101338.25;5034748;28;20414;-80
2024/02/01 03:05:16;;;;;;;14.40;9.45;;;8.20;99.90;;;8.08;89.30;101352.53;5036561;28;20483;-80
2024/02/01 03:07:44;;;;;;;18.23;10.52;;;8.20;99.90;;;8.10;89.45;101357.66;5036900;28;20052;-80
2024/02/01 03:10:15;;;;;;;17.92;11.35;;;8.20;99.90;;;8.07;89.85;101344.75;5036215;28;20120;-80
2024/02/01 03:12:43;;;;;;;14.48;10.75;;;8.20;99.90;;;8.06;90.17;101353.72;5003006;28;20128;-80
2024/02/01 03:15:11;;;;;;;18.05;11.57;;;8.20;99.90;;;8.01;90.84;101335.66;5002561;28;20041;-80
2024/02/01 03:17:41;;;;;;;16.40;10.93;;;8.20;99.90;;;8.03;90.98;101330.97;5017732;28;20145;-80
2024/02/01 03:20:22;;;;;;;18.80;12.43;;;8.20;99.90;;;8.03;91.03;101344.25;5017730;28;20054;-80
2024/02/01 03:22:54;;;;;;;17.65;13.18;;;8.20;99.90;;;8.03;91.43;101340.78;5018618;28;20308;-80
2024/02/01 03:25:28;;;;;;;19.85;13.70;;;8.20;99.90;;;8.07;91.67;101340.25;5036780;28;20084;-80
2024/02/01 03:28:00;;;;;;;21.50;14.20;;;8.20;99.90;;;8.06;91.86;101343.91;5036650;28;20046;-80
2024/02/01 03:30:29;;;;;;;20.85;15.32;;;8.20;99.90;;;8.06;92.27;101353.72;5017779;28;20413;-80
2024/02/01 03:32:58;;;;;;;20.67;14.75;;;8.20;99.90;;;8.07;92.30;101361.50;5036076;28;20060;-80
2024/02/01 03:35:25;;;;;;;23.20;15.10;;;8.20;99.90;;;8.12;92.17;101348.53;5035886;28;20041;-80
2024/02/01 03:37:52;;;;;;;24.60;15.93;;;8.20;99.90;;;8.17;91.82;101361.31;5018025;28;20034;-80
2024/02/01 03:40:20;;;;;;;23.17;15.25;;;8.30;99.90;;;8.16;92.04;101355.16;5017223;28;20057;-80
2024/02/01 03:42:49;;;;;;;21.83;15.60;;;8.40;99.90;;;8.15;91.87;101358.81;5036204;28;20046;-80
2024/02/01 03:45:16;;;;;;;25.38;16.75;;;8.30;99.90;;;8.15;92.27;101358.81;5035072;28;20045;-80
2024/02/01 03:47:46;;;;;;;28.35;18.52;;;8.30;99.90;;;8.15;92.49;101358.81;5018113;28;20120;-80
2024/02/01 03:50:14;;;;;;;27.42;19.08;;;8.30;99.90;;;8.12;92.92;101364.47;5034563;28;20046;-80
2024/02/01 03:52:43;;;;;;;24.70;17.70;;;8.30;99.90;;;8.17;93.28;101366.63;4984626;28;20048;-80
2024/02/01 03:55:17;;;;;;;28.73;18.48;;;8.30;99.90;;;8.17;93.08;101369.28;5035861;28;20048;-80
2024/02/01 03:57:45;;;;;;;33.67;22.13;;;8.30;99.90;;;8.13;93.32;101360.81;5035129;28;20550;-80
2024/02/01 04:00:28;;;;;;;29.58;21.55;;;8.30;99.90;;;8.12;93.67;101372.44;5000898;28;20048;-80
2024/02/01 04:02:57;;;;;;;31.80;21.95;;;8.30;99.90;;;8.14;93.82;101373.09;5017446;28;20050;-80
2024/02/01 04:05:26;;;;;;;39.00;24.50;;;8.30;99.90;;;8.14;94.04;101377.56;5034381;28;20048;-80
2024/02/01 04:07:54;;;;;;;30.55;21.60;;;8.30;99.90;;;8.15;94.27;101376.56;5017159;28;20424;-80
2024/02/01 04:10:22;;;;;;;37.60;24.05;;;8.30;99.90;;;8.15;94.56;101374.78;5034048;28;20064;-80
2024/02/01 04:12:50;;;;;;;32.65;22.98;;;8.30;99.90;;;8.15;94.94;101379.22;5034499;28;20049;-80
2024/02/01 04:15:18;;;;;;;27.58;20.13;;;8.30;99.90;;;8.18;95.00;101376.22;5017197;28;20413;-80
2024/02/01 04:17:45;;;;;;;40.67;24.02;;;8.30;99.90;;;8.22;94.89;101383.69;5034423;28;20033;-80
2024/02/01 04:20:14;;;;;;;31.52;22.40;;;8.40;99.90;;;8.24;94.96;101387.00;5034392;28;20047;-80
2024/02/01 04:22:43;;;;;;;34.03;23.45;;;8.40;99.90;;;8.24;95.27;101397.63;5034598;28;20048;-80
2024/02/01 04:25:10;;;;;;;31.58;22.42;;;8.40;99.90;;;8.28;95.02;101390.13;5035096;28;20099;-80
2024/02/01 04:27:37;;;;;;;29.85;20.80;;;8.40;99.90;;;8.33;94.85;101389.63;5016911;28;20493;-80
2024/02/01 04:30:07;;;;;;;29.58;20.83;;;8.40;99.90;;;8.35;94.58;101395.59;5033338;28;20037;-80
2024/02/01 04:32:37;;;;;;;30.10;21.15;;;8.40;99.90;;;8.37;94.61;101402.41;5036747;28;20052;-80
2024/02/01 04:35:06;;;;;;;31.70;22.08;;;8.50;99.90;;;8.38;94.71;101395.28;5019472;28;20047;-80
2024/02/01 04:37:35;;;;;;;32.53;21.88;;;8.50;99.90;;;8.35;94.64;101412.38;5034064;28;20042;-80
2024/02/01 04:40:03;;;;;;;31.27;20.52;;;8.50;99.90;;;8.40;94.82;101406.56;5000798;28;20087;-80
2024/02/01 04:42:31;;;;;;;32.03;21.40;;;8.50;99.90;;;8.40;94.63;101411.91;5000416;28;20099;-80
2024/02/01 04:45:04;;;;;;;35.67;21.67;;;8.50;99.90;;;8.42;94.80;101412.53;5034079;28;20037;-80
2024/02/01 04:47:32;;;;;;;28.30;20.30;;;8.50;99.90;;;8.43;94.98;101424.81;5017563;28;20120;-80
2024/02/01 04:50:04;;;;;;;29.85;19.77;;;8.50;99.90;;;8.45;94.56;101423.66;5034503;28;20060;-80
2024/02/01 04:52:32;;;;;;;29.70;19.00;;;8.50;99.90;;;8.46;94.58;101430.63;5034454;28;20049;-80
2024/02/01 04:55:00;;;;;;;29.38;19.38;;;8.60;99.90;;;8.42;95.19;101429.31;5034171;28;20107;-80
2024/02/01 04:57:27;;;;;;;34.10;20.20;;;8.60;99.90;;;8.44;95.10;101435.31;5016597;28;20432;-80
2024/02/01 04:59:55;;;;;;;29.38;19.65;;;8.60;99.90;;;8.45;94.94;101433.47;5034327;28;20419;-80
2024/02/01 05:02:22;;;;;;;33.70;19.67;;;8.60;99.90;;;8.46;94.99;101443.91;5016486;28;20045;-80
2024/02/01 05:04:50;;;;;;;29.75;18.90;;;8.60;99.90;;;8.46;95.45;101456.38;5016451;28;20427;-80
2024/02/01 05:07:19;;;;;;;28.23;19.02;;;8.60;99.90;;;8.44;95.54;101453.91;5034987;28;20045;-80
2024/02/01 05:09:48;;;;;;;28.90;19.25;;;8.60;99.90;;;8.45;95.72;101454.72;5040076;28;20053;-85
2024/02/01 05:12:18;;;;;;;32.63;18.90;;;8.60;99.90;;;8.47;95.83;101456.19;5021106;28;20054;-87
2024/02/01 05:14:45;;;;;;;34.22;20.52;;;8.60;99.90;;;8.51;95.55;101465.50;5016105;28;20045;-87
2024/02/01 05:17:13;;;;;;;37.10;21.65;;;8.60;99.90;;;8.48;95.71;101465.81;5033607;28;20069;-87
2024/02/01 05:19:40;;;;;;;31.42;20.10;;;8.60;99.90;;;8.50;95.55;101469.16;5015896;28;20103;-83
2024/02/01 05:22:08;;;;;;;36.40;21.80;;;8.60;99.90;;;8.50;95.49;101463.00;5033686;28;20045;-86
2024/02/01 05:24:38;;;;;;;40.67;23.25;;;8.60;99.90;;;8.50;95.59;101468.34;4977364;28;20132;-86
2024/02/01 05:27:08;;;;;;;36.15;22.15;;;8.70;99.90;;;8.52;95.58;101476.94;5014678;28;20052;-88
2024/02/01 05:29:36;;;;;;;36.13;22.35;;;8.70;99.90;;;8.53;95.73;101470.63;5015396;28;20068;-88
2024/02/01 05:32:06;;;;;;;35.80;21.88;;;8.70;99.90;;;8.56;95.35;101470.28;5015463;28;20041;-88
2024/02/01 05:34:35;;;;;;;35.30;22.70;;;8.70;99.90;;;8.59;94.96;101477.94;5032330;28;20460;-88
2024/02/01 05:37:02;;;;;;;34.80;21.55;;;8.70;99.90;;;8.60;94.47;101484.06;5015798;28;20590;-84
2024/02/01 05:39:30;;;;;;;37.90;23.35;;;8.70;99.90;;;8.57;94.45;101495.88;5020585;28;20057;-82
2024/02/01 05:42:00;;;;;;;43.92;25.65;;;8.70;99.90;;;8.51;94.88;101485.94;5039055;28;20045;-82
2024/02/01 05:44:30;;;;;;;48.33;26.08;;;8.70;99.90;;;8.49;95.04;101487.91;5023059;28;20053;-84
2024/02/01 05:46:58;;;;;;;42.33;24.55;;;8.60;99.90;;;8.50;95.15;101489.59;5008987;28;20515;-80
2024/02/01 05:49:28;;;;;;;40.47;24.17;;;8.60;99.90;;;8.54;95.00;101495.38;5014111;28;20088;-81
2024/02/01 05:52:02;;;;;;;36.63;23.98;;;8.60;99.90;;;8.55;94.65;101492.56;5021017;28;20041;-80
2024/02/01 05:54:32;;;;;;;37.05;24.08;;;8.70;99.90;;;8.59;94.58;101501.88;5039394;28;20059;-80
2024/02/01 05:57:03;;;;;;;42.85;25.45;;;8.70;99.90;;;8.56;94.51;101496.88;5004876;28;20048;-80
2024/02/01 05:59:31;;;;;;;44.80;26.02;;;8.70;99.90;;;8.55;94.44;101503.22;5054348;28;20049;-80
2024/02/01 06:01:58;;;;;;;42.70;25.63;;;8.70;99.90;;;8.58;94.34;101516.13;5003598;28;20045;-80
2024/02/01 06:04:25;;;;;;;44.28;25.35;;;8.70;99.90;;;8.57;94.33;101526.94;5004812;28;20045;-80
2024/02/01 06:06:53;;;;;;;42.85;24.10;;;8.70;99.90;;;8.52;94.11;101525.63;5037701;28;20045;-80
2024/02/01 06:09:21;;;;;;;40.45;23.20;;;8.70;99.90;;;8.54;93.74;101540.56;5023114;28;20064;-80
2024/02/01 06:11:50;;;;;;;39.85;22.00;;;8.60;99.90;;;8.51;93.47;101552.41;5037524;28;20817;-80
2024/02/01 06:14:19;;;;;;;38.38;20.48;;;8.60;99.90;;;8.49;93.06;101557.03;5037513;28;20575;-80
2024/02/01 06:16:46;;;;;;;35.97;19.58;;;8.60;99.90;;;8.54;92.76;101559.19;5019616;28;20072;-80
2024/02/01 06:19:14;;;;;;;32.95;18.63;;;8.60;99.90;;;8.52;92.40;101570.00;5020100;28;20042;-80
2024/02/01 06:21:42;;;;;;;33.75;17.70;;;8.60;99.90;;;8.51;92.11;101566.53;5037272;28;20091;-80
2024/02/01 06:24:11;;;;;;;33.05;17.65;;;8.60;99.90;;;8.53;91.16;101571.66;5053187;28;20037;-80
2024/02/01 06:26:39;;;;;;;32.53;15.73;;;8.60;99.90;;;8.54;90.61;101577.81;5038445;28;20042;-81
2024/02/01 06:29:08;;;;;;;29.45;16.17;;;8.60;99.90;;;8.54;90.27;101589.28;5037603;28;20067;-81
2024/02/01 06:31:38;;;;;;;26.80;15.77;;;8.60;99.90;;;8.58;90.09;101597.75;5020406;28;20080;-81
2024/02/01 06:34:08;;;;;;;22.80;13.10;;;8.60;99.90;;;8.54;89.85;101597.28;5038364;28;20037;-81
2024/02/01 06:36:39;;;;;;;26.83;11.13;;;8.60;99.90;;;8.44;88.80;101615.22;5018602;28;20049;-81
2024/02/01 06:39:16;;;;;;;21.83;10.70;;;8.50;99.90;;;8.42;88.36;101622.53;5018918;28;20045;-81
2024/02/01 06:42:04;;;;;;;22.92;8.23;;;8.50;99.90;;;8.40;87.23;101619.22;5018945;28;20104;-80
2024/02/01 06:44:32;;;;;;;18.33;7.80;;;8.40;99.90;;;8.33;86.53;101627.00;5019348;28;20054;-81
2024/02/01 06:47:11;;;;;;;19.25;6.90;;;8.40;99.90;;;8.29;85.44;101635.47;5019258;28;20080;-81
2024/02/01 06:52:35;;;;;;;18.38;5.05;;;8.30;99.90;;;8.23;83.94;101651.09;5005262;28;20115;-80
2024/02/01 06:57:53;;;;;;;13.15;3.85;;;8.10;99.90;;;8.15;82.96;101658.22;5006008;28;20045;-80
2024/02/01 07:00:40;;;;;;;18.40;3.97;;;8.10;99.90;;;8.15;82.67;101659.06;5037141;28;20501;-80
2024/02/01 07:03:32;;;;;;;22.10;4.13;;;8.10;99.90;;;8.13;82.29;101668.19;5019009;28;20055;-80
2024/02/01 07:06:06;;;;;;;19.02;3.90;;;8.10;99.90;;;8.09;82.40;101680.13;5037128;28;20052;-80
2024/02/01 07:08:45;;;;;;;19.27;4.28;;;8.00;99.90;;;8.05;81.62;101687.59;5018651;28;20096;-80
2024/02/01 07:11:24;;;;;;;20.08;4.38;;;8.00;99.90;;;7.96;81.45;101693.94;5036701;28;20572;-81
2024/02/01 07:14:08;;;;;;;15.48;3.50;;;7.90;99.90;;;7.96;81.75;101692.09;5019024;28;20140;-81
2024/02/01 07:16:35;;;;;;;18.05;3.75;;;7.90;99.90;;;7.95;81.10;101692.25;5018907;28;20046;-81
2024/02/01 07:19:12;;;;;;;18.30;3.72;;;7.80;99.90;;;7.91;81.11;101701.56;5001816;28;20053;-81
2024/02/01 07:24:38;;;;;;;17.25;3.40;;;7.80;99.90;;;7.88;79.65;101708.00;4998722;28;20077;-81
2024/02/01 07:57:50;;;;;;;19.58;3.25;;;7.50;99.90;;;7.65;77.50;101779.47;5018281;28;20049;-81
2024/02/01 08:00:27;;;;;;;18.42;3.30;;;7.50;99.90;;;7.63;77.43;101785.94;5035855;28;20072;-81
2024/02/01 08:03:03;;;;;;;20.88;3.17;;;7.40;99.90;;;7.64;77.37;101798.22;5036121;28;20041;-81
2024/02/01 08:08:18;;;;;;;26.88;4.07;;;7.40;99.90;;;7.62;77.31;101792.25;5031617;28;20050;-80
2024/02/01 08:10:46;;;;;;;27.92;4.93;;;7.50;99.90;;;7.58;76.69;101796.22;5017590;28;20045;-80
2024/02/01 08:13:14;;;;;;;19.92;3.25;;;7.40;99.90;;;7.60;76.99;101799.53;5036377;28;20073;-81
2024/02/01 08:15:42;;;;;;;20.95;3.58;;;7.40;99.90;;;7.63;77.24;101804.53;5035800;28;20097;-81
2024/02/01 08:18:11;;;;;;;23.38;4.15;;;7.40;99.90;;;7.62;76.42;101811.66;5018257;28;20045;-81
2024/02/01 08:20:39;;;;;;;26.17;4.45;;;7.50;99.90;;;7.64;76.26;101822.13;5017880;28;20049;-81
2024/02/01 08:23:08;;;;;;;23.33;3.83;;;7.50;99.90;;;7.59;76.34;101825.25;5035671;28;20029;-81
2024/02/01 08:25:40;;;;;;;23.98;4.25;;;7.40;99.90;;;7.60;76.44;101826.91;5035695;28;20409;-80
2024/02/01 08:28:09;;;;;;;28.45;4.20;;;7.40;99.90;;;7.65;76.47;101829.09;5017637;28;20076;-80
2024/02/01 08:30:37;;;;;;;25.77;4.10;;;7.50;99.90;;;7.67;76.47;101827.13;5033413;28;20042;-80
2024/02/01 08:33:05;;;;;;;28.50;4.28;;;7.50;99.90;;;7.68;76.17;101832.25;5017233;28;20052;-80
2024/02/01 08:35:34;;;;;;;23.30;3.60;;;7.50;99.90;;;7.67;75.92;101833.25;4985540;28;20053;-80
2024/02/01 08:38:06;;;;;;;26.48;4.85;;;7.50;99.90;;;7.58;75.62;101833.38;5035760;28;20448;-80
2024/02/01 08:40:39;;;;;;;19.92;4.18;;;7.50;99.90;;;7.64;76.16;101833.56;5016783;28;20045;-80
2024/02/01 08:43:10;;;;;;;28.60;4.25;;;7.50;99.90;;;7.69;76.28;101841.88;4986476;28;20044;-80
2024/02/01 08:45:39;;;;;;;21.02;3.33;;;7.60;99.90;;;7.71;76.38;101853.19;5017650;28;20045;-80
2024/02/01 08:48:08;;;;;;;27.20;4.40;;;7.60;99.90;;;7.75;76.41;101856.34;5035299;28;20080;-80
2024/02/01 08:50:42;;;;;;;31.38;5.13;;;7.60;99.90;;;7.69;75.88;101862.31;5035408;28;20057;-81
2024/02/01 08:53:11;;;;;;;27.67;4.00;;;7.60;99.90;;;7.71;76.08;101855.84;5051121;28;20092;-81
2024/02/01 08:55:39;;;;;;;28.42;5.28;;;7.60;99.90;;;7.74;75.83;101865.31;5035242;28;20037;-81
2024/02/01 08:58:09;;;;;;;21.50;4.20;;;7.60;99.90;;;7.72;76.11;101851.38;5017743;28;20099;-81
2024/02/01 09:00:38;;;;;;;37.58;4.47;;;7.60;99.90;;;7.77;75.82;101865.00;5025713;28;20042;-81
2024/02/01 09:03:10;;;;;;;28.23;4.93;;;7.60;99.90;;;7.80;75.93;101866.50;5015637;28;20489;-81
2024/02/01 09:05:40;;;;;;;28.15;3.95;;;7.70;99.90;;;7.73;75.42;101872.44;4982079;28;20065;-81
2024/02/01 09:08:12;;;;;;;38.97;4.28;;;7.60;99.90;;;7.78;75.14;101879.13;4982235;28;20046;-81
2024/02/01 09:10:50;;;;;;;28.85;3.72;;;7.70;99.90;;;7.79;75.25;101873.63;5016539;28;20045;-81
2024/02/01 09:13:20;;;;;;;27.65;4.72;;;7.70;99.90;;;7.79;75.30;101878.94;5040208;28;20049;-81
2024/02/01 09:15:49;;;;;;;24.27;4.45;;;7.70;99.90;;;7.85;75.55;101873.00;5011963;28;20091;-81
2024/02/01 09:18:16;;;;;;;29.38;4.55;;;7.80;99.90;;;7.91;75.68;101876.88;5001622;28;20460;-81
2024/02/01 09:20:44;;;;;;;28.33;5.40;;;7.80;99.90;;;7.88;74.47;101883.31;5001694;28;20076;-81
2024/02/01 09:23:12;;;;;;;27.58;4.55;;;7.80;99.90;;;7.84;74.50;101881.97;5002150;28;20564;-81
2024/02/01 09:25:41;;;;;;;26.35;4.75;;;7.80;99.90;;;7.86;74.38;101903.06;5020428;28;20049;-81
2024/02/01 09:28:13;;;;;;;27.45;4.60;;;7.80;99.90;;;7.87;74.02;101900.25;5002003;28;20050;-81
2024/02/01 09:30:45;;;;;;;37.40;5.28;;;7.80;99.90;;;7.91;74.64;101900.78;5001315;28;20121;-81
2024/02/01 09:33:13;;;;;;;31.98;4.30;;;7.80;99.90;;;7.94;74.64;101903.09;5001055;28;20053;-81
2024/02/01 09:35:43;;;;;;;28.30;4.38;;;7.90;99.90;;;7.93;74.08;101912.88;5001984;28;20042;-80
2024/02/01 09:38:11;;;;;;;28.38;4.78;;;7.90;99.90;;;7.89;73.38;101910.72;5018720;28;20514;-80
2024/02/01 09:40:41;;;;;;;30.17;4.68;;;7.80;99.90;;;7.89;74.30;101903.56;5001257;28;20041;-80
2024/02/01 09:43:17;;;;;;;24.63;4.15;;;7.80;99.90;;;7.87;73.39;101907.38;5001128;28;20124;-80
2024/02/01 09:45:47;;;;;;;23.35;4.25;;;7.80;99.90;;;7.87;72.75;101905.56;5001381;28;20068;-80
2024/02/01 09:48:17;;;;;;;30.17;4.57;;;7.80;99.90;;;7.85;72.71;101904.03;5001754;28;20041;-80
2024/02/01 09:50:51;;;;;;;24.03;4.50;;;7.80;99.90;;;7.79;73.13;101913.47;5019418;28;20065;-81
2024/02/01 09:53:21;;;;;;;30.85;4.22;;;7.80;99.90;;;7.77;71.79;101923.44;5000457;28;20048;-80
2024/02/01 09:55:52;;;;;;;36.17;4.87;;;7.80;99.90;;;7.78;72.22;101925.09;5001263;28;20084;-81
2024/02/01 09:58:20;;;;;;;;;;;7.80;99.90;;;7.75;71.45;101936.84;4984986;28;20144;-81
2024/02/01 10:00:50;;;;;;;29.17;3.83;;;7.80;99.90;;;7.80;71.27;101924.94;5018449;28;19921;-81
2024/02/01 10:03:22;;;;;;;28.73;4.10;;;7.80;99.90;;;7.77;71.36;101934.06;5034330;28;20041;-81
2024/02/01 10:05:51;;;;;;;29.67;4.10;;;7.80;99.90;;;7.71;70.70;101950.59;5018551;28;20383;-81
2024/02/01 10:08:19;;;;;;;28.52;5.32;;;7.80;99.90;;;7.72;71.12;101941.66;5000776;28;20077;-81
2024/02/01 10:10:48;;;;;;;33.25;4.63;;;7.80;99.90;;;7.69;69.29;101942.78;4984487;28;20049;-81
2024/02/01 10:13:18;;;;;;;36.38;4.47;;;7.80;99.90;;;7.70;70.94;101939.13;5017809;28;20050;-81
2024/02/01 10:15:46;;;;;;;22.13;4.07;;;7.80;99.90;;;7.75;71.12;101939.50;5000514;28;20042;-80
2024/02/01 10:18:28;;;;;;;32.63;4.80;;;7.80;99.90;;;7.79;70.92;101942.69;4999768;28;20046;-80
2024/02/01 10:20:58;;;;;;;27.80;4.10;;;7.80;99.90;;;7.79;71.10;101944.50;5016992;28;20559;-80
2024/02/01 10:23:26;;;;;;;21.17;4.28;;;7.80;99.90;;;7.88;71.61;101948.88;4990701;28;20055;-84
2024/02/01 10:25:56;;;;;;;29.55;4.30;;;7.90;99.90;;;7.89;71.18;101948.72;5035749;28;20076;-85
2024/02/01 10:28:33;;;;;;;30.30;4.70;;;8.00;99.90;;;7.89;71.67;101943.41;5017055;28;20050;-86
2024/02/01 10:31:02;;;;;;;27.30;4.85;;;8.00;99.90;;;7.91;70.42;101951.25;5035419;28;20136;-86
2024/02/01 10:33:31;;;;;;;27.25;4.68;;;8.00;99.90;;;7.96;70.10;101949.78;5016762;28;20071;-86
2024/02/01 10:36:08;;;;;;;25.00;4.30;;;8.00;99.90;;;8.03;70.64;101955.28;5034612;28;20520;-86
2024/02/01 10:38:42;;;;;;;25.10;4.18;;;8.10;99.90;;;8.08;70.67;101960.13;5051563;28;20075;-85
2024/02/01 10:41:15;;;;;;;26.02;4.30;;;8.10;99.90;;;8.05;70.18;101960.44;5017660;28;20100;-84
2024/02/01 10:43:45;;;;;;;32.92;4.63;;;8.10;99.90;;;8.03;71.09;101955.28;5018547;28;20121;-84
2024/02/01 10:46:24;;;;;;;29.00;4.85;;;8.20;99.90;;;8.07;71.11;101953.97;5035255;28;20049;-81
2024/02/01 10:48:58;;;;;;;27.52;4.88;;;8.20;99.90;;;8.06;70.39;101957.63;5004606;28;20140;-80
2024/02/01 10:51:26;;;;;;;28.10;5.13;;;8.20;99.90;;;8.09;70.13;101965.28;5019787;28;20046;-81
2024/02/01 10:53:54;;;;;;;31.38;4.85;;;8.20;99.90;;;8.11;70.52;101965.97;5019238;28;20064;-81
2024/02/01 10:56:29;;;;;;;24.65;4.85;;;8.20;99.90;;;8.11;69.58;101963.31;5002729;28;20580;-81
2024/02/01 10:59:06;;;;;;;30.38;5.00;;;8.20;99.90;;;8.13;69.03;101966.63;5037490;28;20079;-81
2024/02/01 11:01:36;;;;;;;25.92;4.95;;;8.30;99.90;;;8.10;67.95;101969.63;5037372;28;20072;-81
2024/02/01 11:04:06;;;;;;;27.27;4.40;;;8.20;99.90;;;8.11;68.26;101975.75;5037622;28;20041;-81
2024/02/01 11:06:36;;;;;;;28.90;4.53;;;8.20;99.90;;;8.09;69.26;101965.28;5036797;28;20041;-81
2024/02/01 11:09:18;;;;;;;28.90;4.53;;;8.30;99.90;;;8.16;69.29;101966.31;4988107;28;20050;-80
2024/02/01 11:11:50;;;;;;;38.78;4.57;;;8.30;99.90;;;8.17;68.99;101954.69;4999461;28;20092;-81